map of VDC home
VDC - Airport
Location
City:  Vitoria da Conquista, Bahia, Brazil
Name:Vitoria da Conquista Airport
Old (Alt.):Pedro Otacílio Figueiredo Airport
ICAO:SBQV
IATA:VDC

Details
Type:Airport (Aerodrome, Airfield)
Use:Public/Civil
Latitude:14°51'49"S (-14.863610)
Longitude:40°51'47"W (-40.863055)
Elevation:3002 ft (915 m)
Variation:23.38°W (WMM2015v2 magnetic declination)
-0.02° annual change
Runways:1
Longest:5823 × 98 ft (1775 × 30 m), paved

Time
Time Zone:UTC-3
Local Time:

Weather
METAR:SBQV 041400Z 35005KT 9999 FEW030 29/18 Q1018

Related Locations
Nearby:
Farthest:ULI: 12094 mi / 19464 km
Falalop Island [Ulithi Civil Airfield], Ulithi Atoll, YAP, FM

Find:

   beyond  
but within

Other Information
Maps:
NOTAMs:
Links:
Sources:

  
  • flag of Brazil
  • flag of Bahia
  

Sectional Chart

Flight Planning
at skyvector.com

Satellite Image

Google Maps Satellite view

 

Copyright © 2004-2019 Karl L. Swartz. All rights reserved.
The Great Circle Mapper name and logo are trademarks of the Great Circle Mapper.
All other trademarks mentioned herein belong to their respective owners.
Please see credits for attibutions and further copyright information.

  Follow gcmap on Facebook Follow gcmap on Twitter GCmap on LinkedIn

hCard Microformat

Geo Microformat